UIBB

Bratsk Airport

Bratsk, Russian Federation
TAF UIBB 210200Z 2103/2203 21005G12MPS 9999 NSC
Issued Valid From Valid To
Apr-21 @ 02:00 UTC
(2 hours ago)
Apr-21 @ 03:00 UTC
(an hour ago)
Apr-22 @ 03:00 UTC
(in 23 hours)
Apr-21 @ 03:00 to Apr-22 @ 03:00
TAF UIBB 210200Z 2103/2203 21005G12MPS 9999 NSC
Wind Visibility Clouds
210° at 10 knots
 Gusting to 23 knots
10,000+ meters
  • No significant clouds
TAF UIBB 210200Z 2103/2203 21005G12MPS 9999 NSC
Issued Apr-21 @ 02:00 UTC
(2 hours ago)
Valid From Apr-21 @ 03:00 UTC
(an hour ago)
Valid To Apr-22 @ 03:00 UTC
(in 23 hours)
Apr-21 @ 03:00 - Apr-22 @ 03:00
Wind Visibility
210° at 10 knots
 Gusting to 23 knots
10,000+ meters
Clouds
  • No significant clouds